sensor_id;sensor_type;location;lat;lon;timestamp;temperature;humidity
55004;DHT22;40900;52.710;6.438;2023-05-07T00:01:46;15.00;99.90
55004;DHT22;40900;52.710;6.438;2023-05-07T00:04:12;15.10;99.90
55004;DHT22;40900;52.710;6.438;2023-05-07T00:06:39;15.10;99.90
55004;DHT22;40900;52.710;6.438;2023-05-07T00:09:05;15.00;99.90
55004;DHT22;40900;52.710;6.438;2023-05-07T00:11:31;15.00;99.90
55004;DHT22;40900;52.710;6.438;2023-05-07T00:13:57;15.00;99.90
55004;DHT22;40900;52.710;6.438;2023-05-07T00:16:23;14.90;99.90
55004;DHT22;40900;52.710;6.438;2023-05-07T00:18:48;14.90;99.90
55004;DHT22;40900;52.710;6.438;2023-05-07T00:21:14;15.00;99.90
55004;DHT22;40900;52.710;6.438;2023-05-07T00:23:40;14.90;99.90
55004;DHT22;40900;52.710;6.438;2023-05-07T00:26:05;14.90;99.90
55004;DHT22;40900;52.710;6.438;2023-05-07T00:28:31;14.90;99.90
55004;DHT22;40900;52.710;6.438;2023-05-07T00:30:57;14.90;99.90
55004;DHT22;40900;52.710;6.438;2023-05-07T00:33:23;14.90;99.90
55004;DHT22;40900;52.710;6.438;2023-05-07T00:35:48;14.80;99.90
55004;DHT22;40900;52.710;6.438;2023-05-07T00:38:14;14.80;99.90
55004;DHT22;40900;52.710;6.438;2023-05-07T00:40:40;14.80;99.90
55004;DHT22;40900;52.710;6.438;2023-05-07T00:43:06;14.80;99.90
55004;DHT22;40900;52.710;6.438;2023-05-07T00:45:32;14.80;99.90
55004;DHT22;40900;52.710;6.438;2023-05-07T00:48:00;14.80;99.90
55004;DHT22;40900;52.710;6.438;2023-05-07T00:50:27;14.70;99.90
55004;DHT22;40900;52.710;6.438;2023-05-07T00:52:53;14.70;99.90
55004;DHT22;40900;52.710;6.438;2023-05-07T00:55:18;14.70;99.90
55004;DHT22;40900;52.710;6.438;2023-05-07T00:57:45;14.60;99.90
55004;DHT22;40900;52.710;6.438;2023-05-07T01:00:12;14.60;99.90
55004;DHT22;40900;52.710;6.438;2023-05-07T01:02:38;14.60;99.90
55004;DHT22;40900;52.710;6.438;2023-05-07T01:05:05;14.60;99.90
55004;DHT22;40900;52.710;6.438;2023-05-07T01:07:33;14.60;99.90
55004;DHT22;40900;52.710;6.438;2023-05-07T01:10:00;14.60;99.90
55004;DHT22;40900;52.710;6.438;2023-05-07T01:12:28;14.50;99.90
55004;DHT22;40900;52.710;6.438;2023-05-07T01:14:54;14.40;99.90
55004;DHT22;40900;52.710;6.438;2023-05-07T01:17:19;14.40;99.90
55004;DHT22;40900;52.710;6.438;2023-05-07T01:19:46;14.30;99.90
55004;DHT22;40900;52.710;6.438;2023-05-07T01:22:15;14.30;99.90
55004;DHT22;40900;52.710;6.438;2023-05-07T01:24:42;14.30;99.90
55004;DHT22;40900;52.710;6.438;2023-05-07T01:27:08;14.30;99.90
55004;DHT22;40900;52.710;6.438;2023-05-07T01:29:34;14.30;99.90
55004;DHT22;40900;52.710;6.438;2023-05-07T01:32:00;14.30;99.90
55004;DHT22;40900;52.710;6.438;2023-05-07T01:34:29;14.30;99.90
55004;DHT22;40900;52.710;6.438;2023-05-07T01:36:56;14.30;99.90
55004;DHT22;40900;52.710;6.438;2023-05-07T01:39:27;14.30;99.90
55004;DHT22;40900;52.710;6.438;2023-05-07T01:41:55;14.20;99.90
55004;DHT22;40900;52.710;6.438;2023-05-07T01:44:22;14.20;99.90
55004;DHT22;40900;52.710;6.438;2023-05-07T01:46:49;14.10;99.90
55004;DHT22;40900;52.710;6.438;2023-05-07T01:49:16;14.10;99.90
55004;DHT22;40900;52.710;6.438;2023-05-07T01:51:42;14.10;99.90
55004;DHT22;40900;52.710;6.438;2023-05-07T01:54:08;14.10;99.90
55004;DHT22;40900;52.710;6.438;2023-05-07T01:56:34;14.00;99.90
55004;DHT22;40900;52.710;6.438;2023-05-07T01:59:00;14.00;99.90
55004;DHT22;40900;52.710;6.438;2023-05-07T02:01:27;13.90;99.90
55004;DHT22;40900;52.710;6.438;2023-05-07T02:03:53;13.80;99.90
55004;DHT22;40900;52.710;6.438;2023-05-07T02:06:19;13.80;99.90
55004;DHT22;40900;52.710;6.438;2023-05-07T02:08:45;13.60;99.90
55004;DHT22;40900;52.710;6.438;2023-05-07T02:11:11;13.70;99.90
55004;DHT22;40900;52.710;6.438;2023-05-07T02:13:37;13.60;99.90
55004;DHT22;40900;52.710;6.438;2023-05-07T02:16:03;13.60;99.90
55004;DHT22;40900;52.710;6.438;2023-05-07T02:18:29;13.60;99.90
55004;DHT22;40900;52.710;6.438;2023-05-07T02:20:55;13.50;99.90
55004;DHT22;40900;52.710;6.438;2023-05-07T02:23:21;13.40;99.90
55004;DHT22;40900;52.710;6.438;2023-05-07T02:25:46;13.40;99.90
55004;DHT22;40900;52.710;6.438;2023-05-07T02:28:12;13.40;99.90
55004;DHT22;40900;52.710;6.438;2023-05-07T02:30:38;13.30;99.90
55004;DHT22;40900;52.710;6.438;2023-05-07T02:33:04;13.30;99.90
55004;DHT22;40900;52.710;6.438;2023-05-07T02:35:30;13.30;99.90
55004;DHT22;40900;52.710;6.438;2023-05-07T02:37:56;13.20;99.90
55004;DHT22;40900;52.710;6.438;2023-05-07T02:40:22;13.20;99.90
55004;DHT22;40900;52.710;6.438;2023-05-07T02:42:47;13.20;99.90
55004;DHT22;40900;52.710;6.438;2023-05-07T02:45:13;13.10;99.90
55004;DHT22;40900;52.710;6.438;2023-05-07T02:47:40;13.00;99.90
55004;DHT22;40900;52.710;6.438;2023-05-07T02:50:06;13.00;99.90
55004;DHT22;40900;52.710;6.438;2023-05-07T02:52:32;13.00;99.90
55004;DHT22;40900;52.710;6.438;2023-05-07T02:54:57;12.90;99.90
55004;DHT22;40900;52.710;6.438;2023-05-07T02:57:23;13.00;99.90
55004;DHT22;40900;52.710;6.438;2023-05-07T02:59:49;12.90;99.90
55004;DHT22;40900;52.710;6.438;2023-05-07T03:02:15;12.90;99.90
55004;DHT22;40900;52.710;6.438;2023-05-07T03:04:40;12.80;99.90
55004;DHT22;40900;52.710;6.438;2023-05-07T03:07:06;12.80;99.90
55004;DHT22;40900;52.710;6.438;2023-05-07T03:09:32;12.80;99.90
55004;DHT22;40900;52.710;6.438;2023-05-07T03:11:58;12.70;99.90
55004;DHT22;40900;52.710;6.438;2023-05-07T03:14:23;12.70;99.90
55004;DHT22;40900;52.710;6.438;2023-05-07T03:16:49;12.60;99.90
55004;DHT22;40900;52.710;6.438;2023-05-07T03:19:15;12.60;99.90
55004;DHT22;40900;52.710;6.438;2023-05-07T03:21:41;12.60;99.90
55004;DHT22;40900;52.710;6.438;2023-05-07T03:24:07;12.60;99.90
55004;DHT22;40900;52.710;6.438;2023-05-07T03:26:32;12.60;99.90
55004;DHT22;40900;52.710;6.438;2023-05-07T03:28:58;12.50;99.90
55004;DHT22;40900;52.710;6.438;2023-05-07T03:31:24;12.60;99.90
55004;DHT22;40900;52.710;6.438;2023-05-07T03:33:54;12.50;99.90
55004;DHT22;40900;52.710;6.438;2023-05-07T03:36:21;12.50;99.90
55004;DHT22;40900;52.710;6.438;2023-05-07T03:38:47;12.50;99.90
55004;DHT22;40900;52.710;6.438;2023-05-07T03:41:13;12.40;99.90
55004;DHT22;40900;52.710;6.438;2023-05-07T03:43:39;12.40;99.90
55004;DHT22;40900;52.710;6.438;2023-05-07T03:46:04;12.40;99.90
55004;DHT22;40900;52.710;6.438;2023-05-07T03:48:30;12.40;99.90
55004;DHT22;40900;52.710;6.438;2023-05-07T03:50:57;12.40;99.90
55004;DHT22;40900;52.710;6.438;2023-05-07T03:53:23;12.40;99.90
55004;DHT22;40900;52.710;6.438;2023-05-07T03:55:49;12.40;99.90
55004;DHT22;40900;52.710;6.438;2023-05-07T03:58:15;12.50;99.90
55004;DHT22;40900;52.710;6.438;2023-05-07T04:00:41;12.40;99.90
55004;DHT22;40900;52.710;6.438;2023-05-07T04:03:07;12.40;99.90
55004;DHT22;40900;52.710;6.438;2023-05-07T04:05:33;12.30;99.90
55004;DHT22;40900;52.710;6.438;2023-05-07T04:08:00;12.20;99.90
55004;DHT22;40900;52.710;6.438;2023-05-07T04:10:26;12.30;99.90
55004;DHT22;40900;52.710;6.438;2023-05-07T04:12:53;12.30;99.90
55004;DHT22;40900;52.710;6.438;2023-05-07T04:15:19;12.30;99.90
55004;DHT22;40900;52.710;6.438;2023-05-07T04:17:45;12.30;99.90
55004;DHT22;40900;52.710;6.438;2023-05-07T04:20:15;12.30;99.90
55004;DHT22;40900;52.710;6.438;2023-05-07T04:22:41;12.20;99.90
55004;DHT22;40900;52.710;6.438;2023-05-07T04:25:08;12.30;99.90
55004;DHT22;40900;52.710;6.438;2023-05-07T04:27:37;12.20;99.90
55004;DHT22;40900;52.710;6.438;2023-05-07T04:30:03;12.30;99.90
55004;DHT22;40900;52.710;6.438;2023-05-07T04:32:29;12.30;99.90
55004;DHT22;40900;52.710;6.438;2023-05-07T04:34:56;12.20;99.90
55004;DHT22;40900;52.710;6.438;2023-05-07T04:37:22;12.30;99.90
55004;DHT22;40900;52.710;6.438;2023-05-07T04:39:47;12.30;99.90
55004;DHT22;40900;52.710;6.438;2023-05-07T04:42:16;12.30;99.90
55004;DHT22;40900;52.710;6.438;2023-05-07T04:44:44;12.30;99.90
55004;DHT22;40900;52.710;6.438;2023-05-07T04:47:11;12.30;99.90
55004;DHT22;40900;52.710;6.438;2023-05-07T04:49:37;12.30;99.90
55004;DHT22;40900;52.710;6.438;2023-05-07T04:52:04;12.30;99.90
55004;DHT22;40900;52.710;6.438;2023-05-07T04:54:30;12.30;99.90
55004;DHT22;40900;52.710;6.438;2023-05-07T04:56:56;12.30;99.90
55004;DHT22;40900;52.710;6.438;2023-05-07T04:59:21;12.30;99.90
55004;DHT22;40900;52.710;6.438;2023-05-07T05:01:47;12.30;99.90
55004;DHT22;40900;52.710;6.438;2023-05-07T05:04:13;12.30;99.90
55004;DHT22;40900;52.710;6.438;2023-05-07T05:06:39;12.30;99.90
55004;DHT22;40900;52.710;6.438;2023-05-07T05:09:05;12.30;99.90
55004;DHT22;40900;52.710;6.438;2023-05-07T05:11:31;12.40;99.90
55004;DHT22;40900;52.710;6.438;2023-05-07T05:13:59;12.40;99.90
55004;DHT22;40900;52.710;6.438;2023-05-07T05:16:25;12.40;99.90
55004;DHT22;40900;52.710;6.438;2023-05-07T05:18:50;12.40;99.90
55004;DHT22;40900;52.710;6.438;2023-05-07T05:21:17;12.30;99.90
55004;DHT22;40900;52.710;6.438;2023-05-07T05:23:43;12.20;99.90
55004;DHT22;40900;52.710;6.438;2023-05-07T05:26:09;12.30;99.90
55004;DHT22;40900;52.710;6.438;2023-05-07T05:28:35;12.30;99.90
55004;DHT22;40900;52.710;6.438;2023-05-07T05:31:01;12.30;99.90
55004;DHT22;40900;52.710;6.438;2023-05-07T05:33:27;12.30;99.90
55004;DHT22;40900;52.710;6.438;2023-05-07T05:35:54;12.30;99.90
55004;DHT22;40900;52.710;6.438;2023-05-07T05:38:19;12.30;99.90
55004;DHT22;40900;52.710;6.438;2023-05-07T05:40:46;12.30;99.90
55004;DHT22;40900;52.710;6.438;2023-05-07T05:43:13;12.40;99.90
55004;DHT22;40900;52.710;6.438;2023-05-07T05:45:38;12.40;99.90
55004;DHT22;40900;52.710;6.438;2023-05-07T05:48:04;12.40;99.90
55004;DHT22;40900;52.710;6.438;2023-05-07T05:50:30;12.40;99.90
55004;DHT22;40900;52.710;6.438;2023-05-07T05:52:56;12.40;99.90
55004;DHT22;40900;52.710;6.438;2023-05-07T05:55:23;12.50;99.90
55004;DHT22;40900;52.710;6.438;2023-05-07T05:57:49;12.40;99.90
55004;DHT22;40900;52.710;6.438;2023-05-07T06:00:16;12.40;99.90
55004;DHT22;40900;52.710;6.438;2023-05-07T06:02:41;12.50;99.90
55004;DHT22;40900;52.710;6.438;2023-05-07T06:05:08;12.40;99.90
55004;DHT22;40900;52.710;6.438;2023-05-07T06:07:34;12.50;99.90
55004;DHT22;40900;52.710;6.438;2023-05-07T06:10:01;12.50;99.90
55004;DHT22;40900;52.710;6.438;2023-05-07T06:12:27;12.60;99.90
55004;DHT22;40900;52.710;6.438;2023-05-07T06:14:52;12.50;99.90
55004;DHT22;40900;52.710;6.438;2023-05-07T06:17:18;12.50;99.90
55004;DHT22;40900;52.710;6.438;2023-05-07T06:19:44;12.60;99.90
55004;DHT22;40900;52.710;6.438;2023-05-07T06:22:09;12.60;99.90
55004;DHT22;40900;52.710;6.438;2023-05-07T06:24:35;12.60;99.90
55004;DHT22;40900;52.710;6.438;2023-05-07T06:27:01;12.60;99.90
55004;DHT22;40900;52.710;6.438;2023-05-07T06:29:26;12.60;99.90
55004;DHT22;40900;52.710;6.438;2023-05-07T06:31:53;12.60;99.90
55004;DHT22;40900;52.710;6.438;2023-05-07T06:34:19;12.60;99.90
55004;DHT22;40900;52.710;6.438;2023-05-07T06:36:45;12.60;99.90
55004;DHT22;40900;52.710;6.438;2023-05-07T06:39:10;12.60;99.90
55004;DHT22;40900;52.710;6.438;2023-05-07T06:41:36;12.60;99.90
55004;DHT22;40900;52.710;6.438;2023-05-07T06:44:05;12.70;99.90
55004;DHT22;40900;52.710;6.438;2023-05-07T06:46:31;12.70;99.90
55004;DHT22;40900;52.710;6.438;2023-05-07T06:48:56;12.80;99.90
55004;DHT22;40900;52.710;6.438;2023-05-07T06:51:22;12.80;99.90
55004;DHT22;40900;52.710;6.438;2023-05-07T06:53:48;12.80;99.90
55004;DHT22;40900;52.710;6.438;2023-05-07T06:56:14;12.90;99.90
55004;DHT22;40900;52.710;6.438;2023-05-07T06:58:40;12.90;99.90
55004;DHT22;40900;52.710;6.438;2023-05-07T07:01:05;13.10;99.90
55004;DHT22;40900;52.710;6.438;2023-05-07T07:03:31;13.20;99.90
55004;DHT22;40900;52.710;6.438;2023-05-07T07:05:57;13.40;99.90
55004;DHT22;40900;52.710;6.438;2023-05-07T07:08:22;13.40;99.90
55004;DHT22;40900;52.710;6.438;2023-05-07T07:10:48;13.50;99.90
55004;DHT22;40900;52.710;6.438;2023-05-07T07:13:14;13.60;99.90
55004;DHT22;40900;52.710;6.438;2023-05-07T07:15:40;13.60;99.90
55004;DHT22;40900;52.710;6.438;2023-05-07T07:18:06;13.60;99.90
55004;DHT22;40900;52.710;6.438;2023-05-07T07:20:32;13.70;99.90
55004;DHT22;40900;52.710;6.438;2023-05-07T07:22:58;13.80;99.90
55004;DHT22;40900;52.710;6.438;2023-05-07T07:25:25;13.90;99.90
55004;DHT22;40900;52.710;6.438;2023-05-07T07:27:50;14.10;99.90
55004;DHT22;40900;52.710;6.438;2023-05-07T07:30:16;14.20;99.90
55004;DHT22;40900;52.710;6.438;2023-05-07T07:32:42;14.30;99.90
55004;DHT22;40900;52.710;6.438;2023-05-07T07:35:08;14.40;99.90
55004;DHT22;40900;52.710;6.438;2023-05-07T07:37:34;14.40;99.90
55004;DHT22;40900;52.710;6.438;2023-05-07T07:40:00;14.50;99.90
55004;DHT22;40900;52.710;6.438;2023-05-07T07:42:25;14.60;99.90
55004;DHT22;40900;52.710;6.438;2023-05-07T07:44:52;14.60;99.90
55004;DHT22;40900;52.710;6.438;2023-05-07T07:47:17;14.60;99.90
55004;DHT22;40900;52.710;6.438;2023-05-07T07:49:43;14.80;99.90
55004;DHT22;40900;52.710;6.438;2023-05-07T07:52:09;14.90;99.90
55004;DHT22;40900;52.710;6.438;2023-05-07T07:54:35;15.00;99.90
55004;DHT22;40900;52.710;6.438;2023-05-07T07:57:00;15.10;99.90
55004;DHT22;40900;52.710;6.438;2023-05-07T07:59:27;15.10;99.90
55004;DHT22;40900;52.710;6.438;2023-05-07T08:01:52;15.20;99.90
55004;DHT22;40900;52.710;6.438;2023-05-07T08:04:21;15.30;99.90
55004;DHT22;40900;52.710;6.438;2023-05-07T08:06:47;15.50;99.90
55004;DHT22;40900;52.710;6.438;2023-05-07T08:09:12;15.50;99.90
55004;DHT22;40900;52.710;6.438;2023-05-07T08:11:39;15.60;99.90
55004;DHT22;40900;52.710;6.438;2023-05-07T08:14:04;15.60;99.90
55004;DHT22;40900;52.710;6.438;2023-05-07T08:16:30;15.70;99.90
55004;DHT22;40900;52.710;6.438;2023-05-07T08:18:56;15.80;99.90
55004;DHT22;40900;52.710;6.438;2023-05-07T08:21:22;16.00;99.90
55004;DHT22;40900;52.710;6.438;2023-05-07T08:23:48;16.10;99.90
55004;DHT22;40900;52.710;6.438;2023-05-07T08:26:14;16.30;99.90
55004;DHT22;40900;52.710;6.438;2023-05-07T08:28:40;16.70;99.90
55004;DHT22;40900;52.710;6.438;2023-05-07T08:31:06;17.10;99.90
55004;DHT22;40900;52.710;6.438;2023-05-07T08:33:32;17.30;99.90
55004;DHT22;40900;52.710;6.438;2023-05-07T08:35:57;17.70;99.90
55004;DHT22;40900;52.710;6.438;2023-05-07T08:38:23;18.10;99.90
55004;DHT22;40900;52.710;6.438;2023-05-07T08:40:49;18.60;99.90
55004;DHT22;40900;52.710;6.438;2023-05-07T08:43:15;19.10;99.90
55004;DHT22;40900;52.710;6.438;2023-05-07T08:45:43;19.40;99.90
55004;DHT22;40900;52.710;6.438;2023-05-07T08:48:22;19.30;99.90
55004;DHT22;40900;52.710;6.438;2023-05-07T08:50:50;19.30;99.90
55004;DHT22;40900;52.710;6.438;2023-05-07T08:53:17;19.80;99.90
55004;DHT22;40900;52.710;6.438;2023-05-07T08:55:43;20.20;99.90
55004;DHT22;40900;52.710;6.438;2023-05-07T08:58:09;20.30;99.90
55004;DHT22;40900;52.710;6.438;2023-05-07T09:00:36;20.50;99.90
55004;DHT22;40900;52.710;6.438;2023-05-07T09:03:02;20.90;99.90
55004;DHT22;40900;52.710;6.438;2023-05-07T09:05:28;21.30;99.90
55004;DHT22;40900;52.710;6.438;2023-05-07T09:07:54;21.30;99.90
55004;DHT22;40900;52.710;6.438;2023-05-07T09:10:21;21.20;99.90
55004;DHT22;40900;52.710;6.438;2023-05-07T09:12:47;21.00;99.90
55004;DHT22;40900;52.710;6.438;2023-05-07T09:15:13;20.80;99.90
55004;DHT22;40900;52.710;6.438;2023-05-07T09:17:39;21.00;99.90
55004;DHT22;40900;52.710;6.438;2023-05-07T09:20:08;21.10;99.90
55004;DHT22;40900;52.710;6.438;2023-05-07T09:22:36;21.30;99.90
55004;DHT22;40900;52.710;6.438;2023-05-07T09:25:02;21.70;99.90
55004;DHT22;40900;52.710;6.438;2023-05-07T09:27:29;21.80;99.90
55004;DHT22;40900;52.710;6.438;2023-05-07T09:29:55;22.20;99.90
55004;DHT22;40900;52.710;6.438;2023-05-07T09:32:21;22.50;99.90
55004;DHT22;40900;52.710;6.438;2023-05-07T09:34:47;22.80;99.90
55004;DHT22;40900;52.710;6.438;2023-05-07T09:37:13;22.50;99.90
55004;DHT22;40900;52.710;6.438;2023-05-07T09:39:47;22.40;99.90
55004;DHT22;40900;52.710;6.438;2023-05-07T09:42:13;22.70;99.90
55004;DHT22;40900;52.710;6.438;2023-05-07T09:44:47;22.60;99.90
55004;DHT22;40900;52.710;6.438;2023-05-07T09:47:19;22.50;99.90
55004;DHT22;40900;52.710;6.438;2023-05-07T09:49:47;22.60;99.90
55004;DHT22;40900;52.710;6.438;2023-05-07T09:52:14;22.90;99.90
55004;DHT22;40900;52.710;6.438;2023-05-07T09:54:41;23.40;99.90
55004;DHT22;40900;52.710;6.438;2023-05-07T09:57:10;23.70;99.90
55004;DHT22;40900;52.710;6.438;2023-05-07T09:59:38;24.00;99.90
55004;DHT22;40900;52.710;6.438;2023-05-07T10:02:05;24.10;99.90
55004;DHT22;40900;52.710;6.438;2023-05-07T10:04:32;24.30;99.90
55004;DHT22;40900;52.710;6.438;2023-05-07T10:06:58;24.30;99.90
55004;DHT22;40900;52.710;6.438;2023-05-07T10:09:25;24.00;99.90
55004;DHT22;40900;52.710;6.438;2023-05-07T10:11:52;24.00;99.90
55004;DHT22;40900;52.710;6.438;2023-05-07T10:14:20;24.60;99.90
55004;DHT22;40900;52.710;6.438;2023-05-07T10:16:47;24.70;99.90
55004;DHT22;40900;52.710;6.438;2023-05-07T10:19:14;24.30;99.90
55004;DHT22;40900;52.710;6.438;2023-05-07T10:21:44;24.10;99.90
55004;DHT22;40900;52.710;6.438;2023-05-07T10:24:22;24.30;99.90
55004;DHT22;40900;52.710;6.438;2023-05-07T10:26:52;24.50;99.90
55004;DHT22;40900;52.710;6.438;2023-05-07T10:34:23;24.70;99.90
55004;DHT22;40900;52.710;6.438;2023-05-07T10:36:50;24.70;99.90
55004;DHT22;40900;52.710;6.438;2023-05-07T10:39:17;24.70;99.90
55004;DHT22;40900;52.710;6.438;2023-05-07T10:41:44;24.70;99.90
55004;DHT22;40900;52.710;6.438;2023-05-07T10:44:09;24.70;99.90
55004;DHT22;40900;52.710;6.438;2023-05-07T10:46:35;24.40;99.90
55004;DHT22;40900;52.710;6.438;2023-05-07T10:51:32;24.50;99.90
55004;DHT22;40900;52.710;6.438;2023-05-07T10:56:42;24.60;99.90
55004;DHT22;40900;52.710;6.438;2023-05-07T11:01:53;24.40;99.90
55004;DHT22;40900;52.710;6.438;2023-05-07T11:04:20;24.50;99.90
55004;DHT22;40900;52.710;6.438;2023-05-07T11:12:17;24.10;99.90
55004;DHT22;40900;52.710;6.438;2023-05-07T11:14:43;24.20;99.90
55004;DHT22;40900;52.710;6.438;2023-05-07T11:17:12;24.10;99.90
55004;DHT22;40900;52.710;6.438;2023-05-07T11:19:50;24.20;99.90
55004;DHT22;40900;52.710;6.438;2023-05-07T11:22:36;24.40;99.90
55004;DHT22;40900;52.710;6.438;2023-05-07T11:25:06;24.30;99.90
55004;DHT22;40900;52.710;6.438;2023-05-07T11:27:32;24.10;99.90
55004;DHT22;40900;52.710;6.438;2023-05-07T11:29:58;23.90;99.90
55004;DHT22;40900;52.710;6.438;2023-05-07T11:32:25;23.50;99.90
55004;DHT22;40900;52.710;6.438;2023-05-07T11:34:55;23.40;99.90
55004;DHT22;40900;52.710;6.438;2023-05-07T11:37:23;23.10;99.90
55004;DHT22;40900;52.710;6.438;2023-05-07T11:39:50;23.00;99.90
55004;DHT22;40900;52.710;6.438;2023-05-07T11:42:30;23.20;99.90
55004;DHT22;40900;52.710;6.438;2023-05-07T11:44:57;23.10;99.90
55004;DHT22;40900;52.710;6.438;2023-05-07T11:47:24;23.20;99.90
55004;DHT22;40900;52.710;6.438;2023-05-07T11:49:54;23.20;99.90
55004;DHT22;40900;52.710;6.438;2023-05-07T11:52:22;23.30;99.90
55004;DHT22;40900;52.710;6.438;2023-05-07T11:54:52;23.40;99.90
55004;DHT22;40900;52.710;6.438;2023-05-07T11:57:19;23.20;99.90
55004;DHT22;40900;52.710;6.438;2023-05-07T11:59:45;23.20;99.90
55004;DHT22;40900;52.710;6.438;2023-05-07T12:02:17;23.30;99.90
55004;DHT22;40900;52.710;6.438;2023-05-07T12:04:43;23.30;99.90
55004;DHT22;40900;52.710;6.438;2023-05-07T12:07:15;23.00;99.90
55004;DHT22;40900;52.710;6.438;2023-05-07T12:09:41;22.80;99.90
55004;DHT22;40900;52.710;6.438;2023-05-07T12:12:07;22.60;99.90
55004;DHT22;40900;52.710;6.438;2023-05-07T12:14:37;22.40;99.90
55004;DHT22;40900;52.710;6.438;2023-05-07T12:17:03;22.30;99.90
55004;DHT22;40900;52.710;6.438;2023-05-07T12:19:30;22.30;99.90
55004;DHT22;40900;52.710;6.438;2023-05-07T12:21:56;22.10;99.90
55004;DHT22;40900;52.710;6.438;2023-05-07T12:24:22;22.20;99.90
55004;DHT22;40900;52.710;6.438;2023-05-07T12:26:49;22.20;99.90
55004;DHT22;40900;52.710;6.438;2023-05-07T12:29:15;22.30;99.90
55004;DHT22;40900;52.710;6.438;2023-05-07T12:31:43;22.10;99.90
55004;DHT22;40900;52.710;6.438;2023-05-07T12:34:12;22.10;99.90
55004;DHT22;40900;52.710;6.438;2023-05-07T12:36:39;22.00;99.90
55004;DHT22;40900;52.710;6.438;2023-05-07T12:39:09;21.90;99.90
55004;DHT22;40900;52.710;6.438;2023-05-07T12:41:55;22.00;99.90
55004;DHT22;40900;52.710;6.438;2023-05-07T12:44:31;22.20;99.90
55004;DHT22;40900;52.710;6.438;2023-05-07T12:46:57;22.40;99.90
55004;DHT22;40900;52.710;6.438;2023-05-07T12:49:23;22.40;99.90
55004;DHT22;40900;52.710;6.438;2023-05-07T12:51:50;22.50;99.90
55004;DHT22;40900;52.710;6.438;2023-05-07T12:54:32;22.40;99.90
55004;DHT22;40900;52.710;6.438;2023-05-07T12:57:19;22.40;99.90
55004;DHT22;40900;52.710;6.438;2023-05-07T12:59:45;22.30;99.90
55004;DHT22;40900;52.710;6.438;2023-05-07T13:02:10;22.10;99.90
55004;DHT22;40900;52.710;6.438;2023-05-07T13:04:36;22.00;99.90
55004;DHT22;40900;52.710;6.438;2023-05-07T13:07:02;21.90;99.90
55004;DHT22;40900;52.710;6.438;2023-05-07T13:09:28;21.80;99.90
55004;DHT22;40900;52.710;6.438;2023-05-07T13:11:55;21.70;99.90
55004;DHT22;40900;52.710;6.438;2023-05-07T13:14:21;21.70;99.90
55004;DHT22;40900;52.710;6.438;2023-05-07T13:16:47;21.80;99.90
55004;DHT22;40900;52.710;6.438;2023-05-07T13:19:13;21.70;99.90
55004;DHT22;40900;52.710;6.438;2023-05-07T13:21:39;21.70;99.90
55004;DHT22;40900;52.710;6.438;2023-05-07T13:24:05;21.60;99.90
55004;DHT22;40900;52.710;6.438;2023-05-07T13:26:31;21.50;99.90
55004;DHT22;40900;52.710;6.438;2023-05-07T13:28:57;21.60;99.90
55004;DHT22;40900;52.710;6.438;2023-05-07T13:31:23;21.50;99.90
55004;DHT22;40900;52.710;6.438;2023-05-07T13:33:49;21.60;99.90
55004;DHT22;40900;52.710;6.438;2023-05-07T13:36:15;21.60;99.90
55004;DHT22;40900;52.710;6.438;2023-05-07T13:38:41;21.60;99.90
55004;DHT22;40900;52.710;6.438;2023-05-07T13:41:06;21.50;99.90
55004;DHT22;40900;52.710;6.438;2023-05-07T13:43:32;21.50;99.90
55004;DHT22;40900;52.710;6.438;2023-05-07T13:46:00;21.50;99.90
55004;DHT22;40900;52.710;6.438;2023-05-07T13:48:25;21.40;99.90
55004;DHT22;40900;52.710;6.438;2023-05-07T13:50:51;21.50;99.90
55004;DHT22;40900;52.710;6.438;2023-05-07T13:53:18;21.40;99.90
55004;DHT22;40900;52.710;6.438;2023-05-07T13:55:44;21.40;99.90
55004;DHT22;40900;52.710;6.438;2023-05-07T13:58:10;21.50;99.90
55004;DHT22;40900;52.710;6.438;2023-05-07T14:00:37;21.50;99.90
55004;DHT22;40900;52.710;6.438;2023-05-07T14:03:04;21.40;99.90
55004;DHT22;40900;52.710;6.438;2023-05-07T14:05:30;21.30;99.90
55004;DHT22;40900;52.710;6.438;2023-05-07T14:07:59;21.30;99.90
55004;DHT22;40900;52.710;6.438;2023-05-07T14:10:25;21.10;99.90
55004;DHT22;40900;52.710;6.438;2023-05-07T14:12:51;21.20;99.90
55004;DHT22;40900;52.710;6.438;2023-05-07T14:15:18;21.20;99.90
55004;DHT22;40900;52.710;6.438;2023-05-07T14:17:44;21.00;99.90
55004;DHT22;40900;52.710;6.438;2023-05-07T14:20:10;20.90;99.90
55004;DHT22;40900;52.710;6.438;2023-05-07T14:22:36;20.80;99.90
55004;DHT22;40900;52.710;6.438;2023-05-07T14:25:02;20.80;99.90
55004;DHT22;40900;52.710;6.438;2023-05-07T14:27:28;20.60;99.90
55004;DHT22;40900;52.710;6.438;2023-05-07T14:29:54;20.70;99.90
55004;DHT22;40900;52.710;6.438;2023-05-07T14:32:21;20.60;99.90
55004;DHT22;40900;52.710;6.438;2023-05-07T14:34:47;20.70;99.90
55004;DHT22;40900;52.710;6.438;2023-05-07T14:37:13;20.70;99.90
55004;DHT22;40900;52.710;6.438;2023-05-07T14:39:39;20.60;99.90
55004;DHT22;40900;52.710;6.438;2023-05-07T14:42:05;20.70;99.90
55004;DHT22;40900;52.710;6.438;2023-05-07T14:44:35;20.70;99.90
55004;DHT22;40900;52.710;6.438;2023-05-07T14:47:01;20.70;99.90
55004;DHT22;40900;52.710;6.438;2023-05-07T14:49:27;20.60;99.90
55004;DHT22;40900;52.710;6.438;2023-05-07T14:51:53;20.60;99.90
55004;DHT22;40900;52.710;6.438;2023-05-07T14:54:19;20.60;99.90
55004;DHT22;40900;52.710;6.438;2023-05-07T14:56:45;20.50;99.90
55004;DHT22;40900;52.710;6.438;2023-05-07T14:59:10;20.50;99.90
55004;DHT22;40900;52.710;6.438;2023-05-07T15:01:36;20.60;99.90
55004;DHT22;40900;52.710;6.438;2023-05-07T15:04:05;20.40;99.90
55004;DHT22;40900;52.710;6.438;2023-05-07T15:06:31;20.30;99.90
55004;DHT22;40900;52.710;6.438;2023-05-07T15:08:57;20.20;99.90
55004;DHT22;40900;52.710;6.438;2023-05-07T15:11:29;20.20;99.90
55004;DHT22;40900;52.710;6.438;2023-05-07T15:13:55;20.20;99.90
55004;DHT22;40900;52.710;6.438;2023-05-07T15:16:21;20.10;99.90
55004;DHT22;40900;52.710;6.438;2023-05-07T15:18:47;20.00;99.90
55004;DHT22;40900;52.710;6.438;2023-05-07T15:21:13;20.00;99.90
55004;DHT22;40900;52.710;6.438;2023-05-07T15:23:39;20.00;99.90
55004;DHT22;40900;52.710;6.438;2023-05-07T15:26:06;20.00;99.90
55004;DHT22;40900;52.710;6.438;2023-05-07T15:28:33;20.00;99.90
55004;DHT22;40900;52.710;6.438;2023-05-07T15:30:59;20.00;99.90
55004;DHT22;40900;52.710;6.438;2023-05-07T15:33:25;20.00;99.90
55004;DHT22;40900;52.710;6.438;2023-05-07T15:35:50;20.00;99.90
55004;DHT22;40900;52.710;6.438;2023-05-07T15:38:16;20.00;99.90
55004;DHT22;40900;52.710;6.438;2023-05-07T15:40:42;19.90;99.90
55004;DHT22;40900;52.710;6.438;2023-05-07T15:43:09;20.00;99.90
55004;DHT22;40900;52.710;6.438;2023-05-07T15:45:42;20.00;99.90